Latest Coastal Weather Observations for Smithton

IDT60701

Issued at 1:52 am EST Friday 24 May 2019 (issued every 10 minutes, with the page automatically refreshed every 10 minutes)

About coastal observations | Map of coastal stations | Coastal observations for TAS | Marine services | Other Formats
Station Details ID: 091292 Name: SMITHTON AERODROME Lat: -40.83 Lon: 145.08 Height: 7.5 m
Data from the previous 72 hours. | See also: Recent months at Smithton
Date/Time
EST
Wind Sea
Height
m
Swell Vis
km
Cloud Weather Temp
°C
Press
hPa
Rain since
9am
mm
Dir  Spd
kts
Gust
kts
Height
m
Period
s
Dir
24/01:30am ENE 2 5 - - - - - - - 5.6 1016.9 0.2
24/01:00am S 4 5 - - - - - - - 6.6 1017.2 0.2
24/12:30am CALM 0 0 - - - - - - - 6.3 1017.7 0.2
24/12:00am CALM 0 0 - - - - - - - 6.9 1017.7 0.2
 
Date/Time
EST
Wind Sea
Height
m
Swell Vis
km
Cloud Weather Temp
°C
Press
hPa
Rain since
9am
mm
Dir  Spd
kts
Gust
kts
Height
m
Period
s
Dir
23/11:30pm SSW 1 4 - - - - - - - 7.2 1018.0 0.2
23/11:00pm SSW 3 4 - - - - - - - 6.9 1018.0 0.2
23/10:30pm SSW 3 6 - - - - - - - 7.4 1018.2 0.0
23/10:00pm SSW 3 4 - - - - - - - 7.1 1018.2 0.0
23/09:30pm SSW 1 4 - - - - - - - 7.2 1018.2 0.0
23/09:00pm CALM 0 0 - - - - - - - 7.5 1018.6 0.0
23/08:30pm CALM 0 0 - - - - - - - 8.1 1018.7 0.0
23/08:00pm CALM 0 0 - - - - - - - 9.7 1018.9 0.0
23/07:30pm SSW 4 5 - - - - - - - 11.1 1019.0 0.0
23/07:00pm N 6 7 - - - - - - - 12.9 1019.0 0.0
23/06:30pm N 7 9 - - - - - - - 13.1 1018.8 0.0
23/06:00pm N 6 8 - - - - - - - 13.0 1019.0 0.0
23/05:30pm N 6 7 - - - - - - - 13.0 1019.3 0.0
23/05:00pm N 6 7 - - - - - - - 13.1 1019.4 0.0
23/04:30pm N 6 8 - - - - - - - 13.9 1019.4 0.0
23/04:00pm N 5 7 - - - - - - - 14.9 1019.5 0.0
23/03:30pm N 8 11 - - - - - - - 15.6 1019.7 0.0
23/03:00pm N 8 11 - - - - - - - 16.4 1019.7 0.0
23/02:30pm N 7 10 - - - - - - - 16.0 1020.2 0.0
23/02:00pm N 9 11 - - - - - - - 15.7 1020.7 0.0
23/01:30pm N 8 11 - - - - - - - 17.4 1020.9 0.0
23/01:00pm NNW 7 9 - - - - - - - 15.7 1021.6 0.0
23/12:30pm N 5 8 - - - - - - - 15.4 1022.1 0.0
23/12:00pm NE 6 8 - - - - - - - 15.7 1022.8 0.0
23/11:30am NNE 5 7 - - - - - - - 15.0 1023.4 0.0
23/11:00am NNW 3 5 - - - - - - - 15.7 1023.8 0.0
23/10:30am NE 4 6 - - - - - - - 14.7 1024.1 0.0
23/10:00am ENE 4 6 - - - - - - - 12.9 1024.2 0.0
23/09:30am SW 2 4 - - - - - - - 9.7 1024.6 0.0
23/09:00am S 3 4 - - - - - - - 8.5 1024.7 0.2
23/08:30am SSW 4 5 - - - - - - - 5.3 1024.9 0.2
23/08:00am SSW 5 6 - - - - - - - 3.4 1024.8 0.2
23/07:30am SSW 4 6 - - - - - - - 2.5 1024.7 0.2
23/07:00am S 3 4 - - - - - - - 2.9 1024.8 0.2
23/06:30am CALM 0 1 - - - - - - - 3.2 1024.8 0.2
23/06:00am S 6 7 - - - - - - - 3.7 1024.8 0.2
23/05:30am S 4 6 - - - - - - - 2.0 1024.5 0.2
23/05:00am S 2 4 - - - - - - - 2.4 1024.5 0.2
23/04:30am CALM 0 3 - - - - - - - 2.7 1024.6 0.2
23/04:00am S 7 7 - - - - - - - 2.6 1024.8 0.2
23/03:30am S 6 7 - - - - - - - 2.9 1024.9 0.2
23/03:00am S 3 3 - - - - - - - 3.2 1025.2 0.2
23/02:30am S 3 4 - - - - - - - 2.8 1025.4 0.2
23/02:00am S 3 4 - - - - - - - 3.2 1025.3 0.2
23/01:30am S 4 5 - - - - - - - 3.6 1025.5 0.2
23/01:00am SSW 5 6 - - - - - - - 3.9 1025.7 0.2
23/12:30am SSW 4 5 - - - - - - - 4.2 1025.8 0.2
23/12:00am SSW 5 6 - - - - - - - 4.2 1026.1 0.2
 
Date/Time
EST
Wind Sea
Height
m
Swell Vis
km
Cloud Weather Temp
°C
Press
hPa
Rain since
9am
mm
Dir  Spd
kts
Gust
kts
Height
m
Period
s
Dir
22/11:30pm S 2 3 - - - - - - - 5.2 1026.1 0.2
22/11:00pm S 3 4 - - - - - - - 5.2 1026.5 0.2
22/10:30pm SSW 4 6 - - - - - - - 4.7 1026.6 0.2
22/10:00pm CALM 0 0 - - - - - - - 4.9 1026.6 0.2
22/09:30pm CALM 0 0 - - - - - - - 5.0 1026.7 0.2
22/09:00pm SSW 1 4 - - - - - - - 5.6 1026.6 0.2
22/08:30pm CALM 0 0 - - - - - - - 5.7 1026.5 0.2
22/08:00pm CALM 0 0 - - - - - - - 6.5 1026.5 0.2
22/07:30pm CALM 0 0 - - - - - - - 9.1 1026.4 0.2
22/07:00pm CALM 0 0 - - - - - - - 9.1 1026.3 0.2
22/06:30pm WNW 3 4 - - - - - - - 9.1 1026.2 0.2
22/06:00pm WNW 4 4 - - - - - - - 10.4 1025.9 0.2
22/05:30pm WNW 5 5 - - - - - - - 11.2 1025.7 0.2
22/05:00pm W 4 5 - - - - - - - 12.2 1025.8 0.2
22/04:30pm W 7 9 - - - - - - - 14.2 1025.5 0.2
22/04:00pm W 8 10 - - - - - - - 15.4 1025.3 0.2
22/03:30pm W 8 9 - - - - - - - 16.2 1025.0 0.2
22/03:00pm W 9 10 - - - - - - - 15.9 1025.1 0.2
22/02:30pm W 10 15 - - - - - - - 16.9 1025.1 0.2
22/02:00pm WNW 10 12 - - - - - - - 17.0 1025.1 0.2
22/01:30pm W 11 13 - - - - - - - 17.0 1025.2 0.2
22/01:00pm W 9 12 - - - - - - - 17.4 1025.4 0.2
22/12:30pm WNW 9 11 - - - - - - - 17.2 1025.6 0.2
22/12:00pm WNW 10 14 - - - - - - - 17.0 1025.9 0.2
22/11:30am WNW 9 11 - - - - - - - 16.4 1026.1 0.2
22/11:00am WNW 6 9 - - - - - - - 15.7 1026.3 0.2
22/10:30am NW 5 7 - - - - - - - 14.8 1026.2 0.2
22/10:00am N 4 6 - - - - - - - 13.3 1026.1 0.0
22/09:30am N 1 4 - - - - - - - 12.3 1026.1 0.0
22/09:00am CALM 0 0 - - - - - - - 10.4 1025.9 2.0
22/08:30am SW 2 5 - - - - - - - 7.4 1025.7 2.0
22/08:00am SSW 5 6 - - - - - - - 7.1 1025.2 2.0
22/07:30am SSW 5 6 - - - - - - - 6.6 1025.0 2.0
22/07:00am SW 6 6 - - - - - - - 7.3 1024.7 2.0
22/06:30am SW 6 7 - - - - - - - 8.7 1024.4 2.0
22/06:00am SW 7 7 - - - - - - - 9.0 1024.2 2.0
22/05:30am W 7 7 - - - - - - - 9.6 1023.6 1.8
22/05:00am WSW 5 6 - - - - - - - 10.4 1023.3 1.8
22/04:30am W 4 5 - - - - - - - 11.8 1023.1 1.8
22/04:00am CALM 0 0 - - - - - - - 12.0 1023.0 1.8
22/03:30am W 3 4 - - - - - - - 12.5 1022.8 1.8
22/03:00am W 3 4 - - - - - - - 12.7 1022.7 1.8
22/02:30am W 5 6 - - - - - - - 13.2 1022.6 1.8
22/02:00am WNW 5 9 - - - - - - - 13.1 1022.3 1.6
22/01:30am N 2 4 - - - - - - - 11.5 1022.3 0.4
22/01:00am N 3 4 - - - - - - - 11.1 1022.4 0.4
22/12:30am CALM 0 0 - - - - - - - 11.1 1022.3 0.4
22/12:00am CALM 0 0 - - - - - - - 11.7 1022.2 0.4
 
Date/Time
EST
Wind Sea
Height
m
Swell Vis
km
Cloud Weather Temp
°C
Press
hPa
Rain since
9am
mm
Dir  Spd
kts
Gust
kts
Height
m
Period
s
Dir
21/11:30pm CALM 0 2 - - - - - - - 10.8 1022.1 0.4
21/11:00pm NNW 4 4 - - - - - - - 11.2 1022.1 0.4
21/10:30pm NNW 4 5 - - - - - - - 10.3 1021.9 0.4
21/10:00pm NW 3 3 - - - - - - - 10.1 1021.9 0.4
21/09:30pm NW 1 3 - - - - - - - 10.9 1021.9 0.4
21/09:00pm NW 3 4 - - - - - - - 11.2 1021.7 0.4
21/08:30pm NNW 4 5 - - - - - - - 10.8 1021.4 0.4
21/08:00pm NW 3 5 - - - - - - - 11.3 1021.2 0.4
21/07:30pm NW 3 4 - - - - - - - 12.1 1021.0 0.4
21/07:00pm NW 5 6 - - - - - - - 12.4 1020.9 0.4
21/06:30pm W 4 6 - - - - - - - 13.0 1020.6 0.4
21/06:00pm W 6 8 - - - - - - - 13.0 1020.5 0.4
21/05:30pm W 9 13 - - - - - - - 14.1 1020.2 0.4
21/05:00pm NNW 4 6 - - - - - - - 14.6 1019.9 0.2
21/04:30pm NW 6 7 - - - - - - - 15.1 1019.8 0.2
21/04:00pm WNW 7 10 - - - - - - - 15.7 1019.6 0.2
21/03:30pm WNW 10 13 - - - - - - - 16.2 1019.2 0.2
21/03:00pm WNW 10 14 - - - - - - - 16.4 1019.1 0.2
21/02:30pm W 9 12 - - - - - - - 16.6 1018.8 0.2
21/02:00pm W 14 19 - - - - - - - 16.2 1018.8 0.2
21/01:30pm WNW 13 18 - - - - - - - 16.2 1018.6 0.2
21/01:00pm W 11 15 - - - - - - - 15.7 1018.7 0.2
21/12:30pm WNW 15 20 - - - - - - - 16.1 1018.9 0.2
21/12:00pm WNW 10 13 - - - - - - - 15.9 1019.0 0.2
21/11:30am WNW 10 13 - - - - - - - 15.7 1019.2 0.2
21/11:00am W 10 14 - - - - - - - 14.8 1019.2 0.2
21/10:30am WNW 10 13 - - - - - - - 14.7 1019.2 0.2
21/10:00am WNW 10 14 - - - - - - - 13.9 1019.2 0.2
21/09:30am W 9 11 - - - - - - - 14.5 1019.1 0.0
21/09:00am W 11 15 - - - - - - - 13.4 1018.9 13.2
21/08:30am WNW 1 4 - - - - - - - 12.0 1018.7 13.2
21/08:00am CALM 0 0 - - - - - - - 10.9 1018.3 13.2
21/07:30am CALM 0 3 - - - - - - - 11.5 1017.9 13.2
21/07:00am W 6 7 - - - - - - - 12.3 1017.8 13.2
21/06:30am W 12 20 - - - - - - - 12.9 1017.4 13.2
21/06:00am WNW 8 14 - - - - - - - 13.1 1017.2 12.8
21/05:30am WNW 8 11 - - - - - - - 13.0 1017.0 12.8
21/05:00am WNW 8 10 - - - - - - - 12.9 1016.8 12.8
21/04:30am WNW 6 7 - - - - - - - 12.3 1016.6 12.8
21/04:00am WNW 7 9 - - - - - - - 12.4 1016.5 12.8
21/03:30am NW 6 8 - - - - - - - 11.5 1016.5 12.6
21/03:00am NW 8 13 - - - - - - - 12.2 1016.6 12.6
21/02:30am WNW 6 8 - - - - - - - 11.8 1016.5 12.4
21/02:00am W 7 9 - - - - - - - 12.6 1016.4 12.4

Other formats

Comma delimited format used in spreadsheet applications
http://www.bom.gov.au/fwo/IDT60701/IDT60701.94953.axf

JavaScript Object Notation format (JSON) in row-major order
http://www.bom.gov.au/fwo/IDT60701/IDT60701.94953.json

Data quality

Most of these data are generated automatically and are frequently updated. Quality checks on data are not normally performed. It is possible for incorrect values to appear. Refer to information at About Latest Weather Observations and please check the disclaimer before using these data.